Time;durP1;ratioP1;P1;durP2;ratioP2;P2;SDS_P1;SDS_P2;PMS_P1;PMS_P2;Temp;Humidity;BMP_temperature;BMP_pressure;BME280_temperature;BME280_humidity;BME280_pressure;Samples;Min_cycle;Max_cycle;Signal;HPM_P1;HPM_P2
2021/01/24 00:01:25;;;;;;;15.15;4.95;;;10.60;58.20;;;;;;6206931;28;20391;-74
2021/01/24 00:04:26;;;;;;;11.10;4.95;;;10.50;58.30;;;;;;6189921;28;20033;-75
2021/01/24 00:07:28;;;;;;;10.20;4.97;;;10.40;58.60;;;;;;6222577;28;20036;-75
2021/01/24 00:10:28;;;;;;;7.50;4.40;;;10.30;58.70;;;;;;6206154;28;20035;-75
2021/01/24 00:13:29;;;;;;;8.73;4.15;;;10.20;58.70;;;;;;6206792;28;20073;-75
2021/01/24 00:16:30;;;;;;;10.30;4.38;;;10.20;59.00;;;;;;6221363;28;20032;-75
2021/01/24 00:19:31;;;;;;;7.97;4.07;;;10.10;59.60;;;;;;6189808;28;20063;-75
2021/01/24 00:22:32;;;;;;;8.38;3.88;;;10.10;59.20;;;;;;6234720;28;20034;-74
2021/01/24 00:25:33;;;;;;;8.43;3.97;;;10.00;59.50;;;;;;6208741;28;20064;-75
2021/01/24 00:28:34;;;;;;;6.60;3.80;;;10.00;59.40;;;;;;6219068;28;20042;-76
2021/01/24 00:31:35;;;;;;;8.07;3.63;;;9.90;59.60;;;;;;6219719;28;20041;-74
2021/01/24 00:34:36;;;;;;;7.97;3.65;;;9.90;59.80;;;;;;6209601;28;20464;-75
2021/01/24 00:37:37;;;;;;;10.68;4.00;;;9.90;59.80;;;;;;6211557;28;20048;-76
2021/01/24 00:40:39;;;;;;;6.88;3.72;;;9.90;59.90;;;;;;6222377;28;20053;-75
2021/01/24 00:43:41;;;;;;;6.55;3.35;;;9.80;60.00;;;;;;6196702;28;20045;-75
2021/01/24 00:46:43;;;;;;;7.88;3.03;;;9.80;60.00;;;;;;6180146;28;20034;-76
2021/01/24 00:49:44;;;;;;;5.53;2.80;;;9.80;60.10;;;;;;6205290;28;20038;-75
2021/01/24 00:52:45;;;;;;;7.03;3.63;;;9.80;60.20;;;;;;6206047;28;20080;-76
2021/01/24 00:55:46;;;;;;;7.35;3.65;;;9.80;60.30;;;;;;6223051;28;20395;-76
2021/01/24 00:58:47;;;;;;;6.60;3.33;;;9.80;61.30;;;;;;6206292;28;20096;-75
2021/01/24 01:01:48;;;;;;;8.45;3.63;;;9.70;60.50;;;;;;6204772;28;20030;-75
2021/01/24 01:04:49;;;;;;;6.40;2.95;;;9.80;60.60;;;;;;6222933;28;20099;-75
2021/01/24 01:07:50;;;;;;;6.45;3.45;;;9.80;60.70;;;;;;6204391;28;20091;-75
2021/01/24 01:10:51;;;;;;;6.68;2.95;;;9.80;60.70;;;;;;6205930;28;20467;-75
2021/01/24 01:13:52;;;;;;;8.90;3.92;;;9.80;60.80;;;;;;6222745;28;20509;-76
2021/01/24 01:16:53;;;;;;;4.78;2.15;;;9.80;60.80;;;;;;6202289;28;20030;-75
2021/01/24 01:19:55;;;;;;;5.97;2.70;;;9.80;60.70;;;;;;6205684;28;20478;-75
2021/01/24 01:22:56;;;;;;;8.52;2.70;;;9.90;60.60;;;;;;6220924;28;20121;-75
2021/01/24 01:25:57;;;;;;;6.03;2.20;;;9.90;60.60;;;;;;6203641;28;20100;-75
2021/01/24 01:28:58;;;;;;;4.03;1.58;;;9.90;60.50;;;;;;6204620;28;20061;-75
2021/01/24 01:31:59;;;;;;;3.83;2.00;;;9.90;60.50;;;;;;6206536;28;20058;-75
2021/01/24 01:35:01;;;;;;;3.50;1.67;;;9.80;60.40;;;;;;6220322;28;20048;-76
2021/01/24 01:38:02;;;;;;;2.75;1.63;;;9.80;60.60;;;;;;6205765;28;20057;-76
2021/01/24 01:41:03;;;;;;;3.30;1.25;;;9.90;60.70;;;;;;6202665;28;20041;-75
2021/01/24 01:44:04;;;;;;;6.97;2.08;;;9.90;60.70;;;;;;6203517;28;20030;-76
2021/01/24 01:47:05;;;;;;;4.60;2.10;;;9.90;60.70;;;;;;6204358;28;20519;-75
2021/01/24 01:50:07;;;;;;;5.07;2.03;;;10.00;60.80;;;;;;6220913;28;20149;-74
2021/01/24 01:53:08;;;;;;;3.97;1.55;;;10.00;60.70;;;;;;6189607;28;20048;-75
2021/01/24 01:56:10;;;;;;;3.33;1.50;;;10.00;60.60;;;;;;6187289;28;20045;-75
2021/01/24 01:59:11;;;;;;;4.97;2.08;;;10.10;60.60;;;;;;6204287;28;20061;-74
2021/01/24 02:02:35;;;;;;;3.42;1.45;;;10.10;60.60;;;;;;6201438;28;20048;-74
2021/01/24 02:05:54;;;;;;;4.30;1.48;;;10.10;60.60;;;;;;6200405;28;20044;-74
2021/01/24 02:09:10;;;;;;;2.58;1.48;;;10.10;60.50;;;;;;6218330;28;20046;-75
2021/01/24 02:12:20;;;;;;;2.55;1.50;;;10.00;60.30;;;;;;6199273;28;20463;-75
2021/01/24 02:15:23;;;;;;;2.38;1.45;;;10.00;60.50;;;;;;6186332;28;20172;-75
2021/01/24 02:18:25;;;;;;;3.17;1.67;;;10.00;60.50;;;;;;6219882;28;20033;-75
2021/01/24 02:21:30;;;;;;;5.53;1.98;;;10.10;60.60;;;;;;6210591;28;20026;-75
2021/01/24 02:24:39;;;;;;;4.20;1.75;;;10.10;60.60;;;;;;6203245;28;20038;-75
2021/01/24 02:27:49;;;;;;;4.40;1.90;;;10.10;60.60;;;;;;6198111;28;20145;-75
2021/01/24 02:30:51;;;;;;;3.78;1.98;;;10.20;60.70;;;;;;6201580;28;20037;-74
2021/01/24 02:33:55;;;;;;;6.05;2.00;;;10.20;60.60;;;;;;6219308;28;20026;-74
2021/01/24 02:36:58;;;;;;;4.95;2.15;;;10.20;60.50;;;;;;6216730;28;20060;-75
2021/01/24 02:40:02;;;;;;;2.13;1.55;;;10.20;60.50;;;;;;6220180;28;20026;-75
2021/01/24 02:43:05;;;;;;;3.22;1.23;;;10.20;60.50;;;;;;6222282;28;20022;-75
2021/01/24 02:46:07;;;;;;;2.28;1.27;;;10.20;60.20;;;;;;6202326;28;20038;-75
2021/01/24 02:49:08;;;;;;;5.70;2.00;;;10.30;60.00;;;;;;6206658;28;20073;-75
2021/01/24 02:52:10;;;;;;;1.73;1.00;;;10.30;59.90;;;;;;6207678;28;20095;-75
2021/01/24 02:55:11;;;;;;;3.15;1.52;;;10.30;59.80;;;;;;6191083;28;20061;-75
2021/01/24 02:58:14;;;;;;;1.77;0.95;;;10.30;59.50;;;;;;6209216;28;20045;-75
2021/01/24 03:01:15;;;;;;;5.32;1.65;;;10.20;59.60;;;;;;6207688;28;20124;-75
2021/01/24 03:04:16;;;;;;;1.35;1.13;;;10.20;59.60;;;;;;6225062;28;20494;-75
2021/01/24 03:07:17;;;;;;;1.77;1.30;;;10.20;59.70;;;;;;6223022;28;20038;-75
2021/01/24 03:10:19;;;;;;;1.48;1.00;;;10.20;59.70;;;;;;6223406;28;20054;-75
2021/01/24 03:13:48;;;;;;;1.77;1.00;;;10.20;59.70;;;;;;6197217;28;20045;-75
2021/01/24 03:16:50;;;;;;;2.28;1.50;;;10.20;59.80;;;;;;6189883;28;20046;-75
2021/01/24 03:19:52;;;;;;;3.10;1.20;;;10.10;59.80;;;;;;6207982;28;20038;-75
2021/01/24 03:22:54;;;;;;;4.82;1.23;;;10.10;60.00;;;;;;6189933;28;20076;-75
2021/01/24 03:25:57;;;;;;;3.15;1.42;;;10.10;60.00;;;;;;6222104;28;20057;-75
2021/01/24 03:28:59;;;;;;;4.50;1.25;;;10.10;60.10;;;;;;6206307;28;20125;-75
2021/01/24 03:36:22;;;;;;;3.10;1.27;;;10.10;60.10;;;;;;6218671;28;20080;-74
2021/01/24 03:39:23;;;;;;;5.35;1.58;;;10.00;60.30;;;;;;6220824;28;20099;-74
2021/01/24 03:42:26;;;;;;;2.63;1.27;;;10.10;60.20;;;;;;6207715;28;20034;-74
2021/01/24 03:45:28;;;;;;;2.42;1.48;;;10.10;60.30;;;;;;6223459;28;20035;-74
2021/01/24 03:48:29;;;;;;;4.53;2.05;;;10.10;60.40;;;;;;6223131;28;20033;-74
2021/01/24 03:51:30;;;;;;;2.83;1.25;;;10.10;61.20;;;;;;6189006;28;20720;-74
2021/01/24 03:54:30;;;;;;;3.40;1.83;;;10.10;60.30;;;;;;6204773;28;20037;-75
2021/01/24 03:57:32;;;;;;;4.15;1.75;;;10.10;60.30;;;;;;6221255;28;20495;-76
2021/01/24 04:00:33;;;;;;;3.65;1.85;;;10.10;60.40;;;;;;6222049;28;20438;-74
2021/01/24 04:03:34;;;;;;;6.57;1.50;;;10.00;60.40;;;;;;6189035;28;20026;-76
2021/01/24 04:06:35;;;;;;;2.30;1.42;;;10.00;60.50;;;;;;6204954;28;20487;-74
2021/01/24 04:09:36;;;;;;;1.95;1.20;;;10.00;60.60;;;;;;6206386;28;20041;-74
2021/01/24 04:12:37;;;;;;;2.30;1.50;;;9.90;60.50;;;;;;6204992;28;20057;-74
2021/01/24 04:15:38;;;;;;;5.10;1.85;;;9.90;60.70;;;;;;6205238;28;20399;-75
2021/01/24 04:18:39;;;;;;;2.00;1.45;;;9.80;60.80;;;;;;6205738;28;20053;-75
2021/01/24 04:21:40;;;;;;;2.90;1.33;;;9.80;61.10;;;;;;6189887;28;20033;-75
2021/01/24 04:24:40;;;;;;;2.80;1.27;;;9.80;61.20;;;;;;6219680;28;20117;-75
2021/01/24 04:27:41;;;;;;;4.13;1.83;;;9.80;61.10;;;;;;6204574;28;20045;-75
2021/01/24 04:30:42;;;;;;;3.63;1.95;;;9.80;61.20;;;;;;6204478;28;20018;-75
2021/01/24 04:33:43;;;;;;;3.05;1.70;;;9.80;61.30;;;;;;6220504;28;20038;-75
2021/01/24 04:36:44;;;;;;;3.80;1.55;;;9.80;61.40;;;;;;6201922;28;20049;-74
2021/01/24 04:39:45;;;;;;;3.55;1.70;;;9.80;61.40;;;;;;6189079;28;20022;-76
2021/01/24 04:42:46;;;;;;;5.78;1.40;;;9.80;61.40;;;;;;6205577;28;20026;-74
2021/01/24 04:45:48;;;;;;;5.93;2.00;;;9.80;61.00;;;;;;6204439;28;20034;-75
2021/01/24 04:48:50;;;;;;;5.10;2.33;;;9.70;61.20;;;;;;6204673;28;20049;-75
2021/01/24 04:51:51;;;;;;;2.72;1.55;;;9.60;61.20;;;;;;6202839;28;20057;-75
2021/01/24 04:54:52;;;;;;;3.85;1.67;;;9.60;61.50;;;;;;6221459;28;20088;-75
2021/01/24 04:57:53;;;;;;;3.20;1.95;;;9.60;61.40;;;;;;6194689;28;20400;-76
2021/01/24 05:00:55;;;;;;;3.50;1.80;;;9.50;61.50;;;;;;6202310;28;20105;-75
2021/01/24 05:03:56;;;;;;;3.22;1.80;;;9.40;61.70;;;;;;6204462;28;20040;-75
2021/01/24 05:11:20;;;;;;;;;;;9.40;62.10;;;;;;6217624;28;20030;-75
2021/01/24 05:14:24;;;;;;;4.03;1.83;;;9.30;61.90;;;;;;6202196;28;19913;-75
2021/01/24 05:17:25;;;;;;;4.68;1.85;;;9.30;61.90;;;;;;6218353;28;20037;-75
2021/01/24 05:20:29;;;;;;;4.78;2.00;;;9.20;61.90;;;;;;6202325;28;20034;-75
2021/01/24 05:23:30;;;;;;;4.00;2.13;;;9.20;62.00;;;;;;6176381;28;20026;-75
2021/01/24 05:26:31;;;;;;;3.25;2.00;;;9.20;62.10;;;;;;6203441;28;20117;-75
2021/01/24 05:29:36;;;;;;;11.43;2.33;;;9.10;62.30;;;;;;6201815;28;20038;-75
2021/01/24 05:32:42;;;;;;;4.60;2.15;;;9.10;62.30;;;;;;6218889;28;20034;-75
2021/01/24 05:35:51;;;;;;;4.50;2.30;;;9.10;62.30;;;;;;6200567;28;20041;-75
2021/01/24 05:38:53;;;;;;;7.18;3.00;;;9.10;62.40;;;;;;6204519;28;20091;-75
2021/01/24 05:41:56;;;;;;;6.68;2.47;;;9.00;62.30;;;;;;6186314;28;20034;-75
2021/01/24 05:44:56;;;;;;;6.93;2.67;;;9.00;62.30;;;;;;6190940;28;20411;-75
2021/01/24 05:47:59;;;;;;;5.70;2.65;;;9.00;62.30;;;;;;6202238;28;20120;-75
2021/01/24 05:51:05;;;;;;;5.13;2.40;;;8.90;62.30;;;;;;6198966;28;20029;-75
2021/01/24 05:54:06;;;;;;;6.97;2.50;;;8.90;62.50;;;;;;6183484;28;20471;-75
2021/01/24 05:57:08;;;;;;;4.28;2.65;;;8.80;62.50;;;;;;6202276;28;20056;-75
2021/01/24 06:00:09;;;;;;;4.32;2.90;;;8.80;62.70;;;;;;6219106;28;20038;-75
2021/01/24 06:03:11;;;;;;;5.80;2.78;;;8.70;62.80;;;;;;6202323;28;20041;-75
2021/01/24 06:06:13;;;;;;;6.78;3.08;;;8.70;62.90;;;;;;6202800;28;20471;-76
2021/01/24 06:09:14;;;;;;;4.88;2.40;;;8.60;63.00;;;;;;6203245;28;20479;-75
2021/01/24 06:12:16;;;;;;;7.82;3.13;;;8.60;63.00;;;;;;6203288;28;20077;-75
2021/01/24 06:15:18;;;;;;;5.30;2.83;;;8.60;63.10;;;;;;6220760;28;20045;-75
2021/01/24 06:18:43;;;;;;;5.72;2.65;;;8.50;63.20;;;;;;6196523;28;20686;-75
2021/01/24 06:21:50;;;;;;;5.30;2.88;;;8.40;63.30;;;;;;6197868;28;20030;-75
2021/01/24 06:24:55;;;;;;;8.10;3.07;;;8.40;63.30;;;;;;6223627;28;20045;-75
2021/01/24 06:28:24;;;;;;;3.80;1.98;;;8.40;63.40;;;;;;6208057;28;20269;-75
2021/01/24 06:31:25;;;;;;;;;;;8.40;63.20;;;;;;6186288;28;20402;-75
2021/01/24 06:34:42;;;;;;;4.25;1.85;;;8.30;62.80;;;;;;6223556;28;19932;-75
2021/01/24 06:38:09;;;;;;;4.55;1.70;;;8.30;62.70;;;;;;6202209;28;20037;-75
2021/01/24 06:41:11;;;;;;;1.38;1.00;;;8.30;62.70;;;;;;6202090;28;20036;-75
2021/01/24 06:44:37;;;;;;;3.42;1.35;;;8.30;62.50;;;;;;6193182;28;20041;-76
2021/01/24 06:47:38;;;;;;;1.48;1.15;;;8.30;62.00;;;;;;6127408;29;20032;-74
2021/01/24 06:50:46;;;;;;;0.75;0.68;;;8.30;61.70;;;;;;6120084;29;20048;-74
2021/01/24 06:53:47;;;;;;;;;;;8.30;61.40;;;;;;6122296;29;20448;-74
2021/01/24 06:56:48;;;;;;;1.10;0.75;;;8.30;61.00;;;;;;6115058;29;19923;-75
2021/01/24 06:59:49;;;;;;;1.92;1.00;;;8.30;60.50;;;;;;6124411;29;20466;-75
2021/01/24 07:02:50;;;;;;;1.05;0.90;;;8.30;60.20;;;;;;6111906;29;20107;-74
2021/01/24 07:05:51;;;;;;;0.50;0.50;;;8.40;60.00;;;;;;6110189;29;20460;-74
2021/01/24 07:08:52;;;;;;;5.68;1.42;;;8.40;59.40;;;;;;6110370;29;20036;-75
2021/01/24 07:11:59;;;;;;;2.67;0.70;;;8.40;59.40;;;;;;6125864;29;20084;-75
2021/01/24 07:15:02;;;;;;;2.08;0.88;;;8.40;59.40;;;;;;6125654;29;20480;-76
2021/01/24 07:18:03;;;;;;;1.60;0.80;;;8.40;59.10;;;;;;6124475;29;20035;-75
2021/01/24 07:21:04;;;;;;;2.30;0.90;;;8.40;59.00;;;;;;6125361;29;20039;-74
2021/01/24 07:24:05;;;;;;;0.70;0.70;;;8.40;58.90;;;;;;6143924;28;20026;-76
2021/01/24 07:27:08;;;;;;;1.08;0.88;;;8.40;59.00;;;;;;6201011;28;20121;-74
2021/01/24 07:30:10;;;;;;;1.80;0.88;;;8.40;58.80;;;;;;6217918;28;20053;-75
2021/01/24 07:33:11;;;;;;;1.63;0.57;;;8.40;58.60;;;;;;6198688;28;20053;-75
2021/01/24 07:36:16;;;;;;;0.50;0.50;;;8.40;58.60;;;;;;6185567;28;20038;-76
2021/01/24 07:39:19;;;;;;;2.05;1.15;;;8.40;58.50;;;;;;6196454;28;20033;-76
2021/01/24 07:42:20;;;;;;;2.40;0.77;;;8.40;58.60;;;;;;6204351;28;20041;-74
2021/01/24 07:45:22;;;;;;;0.90;0.80;;;8.40;58.50;;;;;;6186735;28;20041;-75
2021/01/24 07:48:24;;;;;;;1.00;0.85;;;8.30;58.30;;;;;;6220620;28;20041;-75
2021/01/24 07:51:25;;;;;;;1.02;0.95;;;8.30;58.60;;;;;;6220538;28;20031;-75
2021/01/24 07:54:27;;;;;;;1.40;0.80;;;8.30;58.50;;;;;;6220528;28;20045;-75
2021/01/24 07:57:28;;;;;;;0.93;0.80;;;8.30;58.50;;;;;;6203788;28;20034;-74
2021/01/24 08:00:29;;;;;;;2.13;0.80;;;8.30;58.50;;;;;;6209417;28;20050;-75
2021/01/24 08:03:34;;;;;;;0.75;0.75;;;8.30;58.10;;;;;;6203127;28;20483;-75
2021/01/24 08:06:37;;;;;;;1.60;0.93;;;8.30;57.90;;;;;;6185781;28;20041;-75
2021/01/24 08:09:38;;;;;;;1.23;0.85;;;8.30;57.80;;;;;;6206826;28;20041;-76
2021/01/24 08:12:39;;;;;;;2.75;0.93;;;8.20;57.60;;;;;;6187308;28;20034;-76
2021/01/24 08:15:40;;;;;;;1.98;0.80;;;8.20;57.50;;;;;;6168682;28;20042;-75
2021/01/24 08:18:45;;;;;;;2.38;1.23;;;8.20;57.60;;;;;;6182123;28;20109;-74
2021/01/24 08:21:47;;;;;;;1.92;1.10;;;8.20;57.70;;;;;;6184060;28;20451;-75
2021/01/24 08:24:48;;;;;;;1.05;0.70;;;8.20;57.40;;;;;;6168570;28;20184;-75
2021/01/24 08:27:50;;;;;;;0.65;0.65;;;8.30;57.40;;;;;;6167507;28;20046;-75
2021/01/24 08:30:51;;;;;;;0.95;0.73;;;8.20;57.10;;;;;;6199540;28;20030;-75
2021/01/24 08:33:54;;;;;;;1.50;1.10;;;8.20;57.10;;;;;;6183371;28;20130;-75
2021/01/24 08:36:55;;;;;;;1.48;0.80;;;8.20;56.90;;;;;;6185434;28;20038;-75
2021/01/24 08:39:58;;;;;;;0.68;0.60;;;8.30;56.60;;;;;;6178603;28;20452;-75
2021/01/24 08:43:00;;;;;;;0.65;0.60;;;8.30;56.60;;;;;;6169980;28;20041;-74
2021/01/24 08:46:23;;;;;;;6.03;1.90;;;8.20;56.20;;;;;;6177187;28;20121;-76
2021/01/24 08:49:29;;;;;;;0.70;0.70;;;8.20;56.20;;;;;;6197981;28;20046;-75
2021/01/24 08:52:30;;;;;;;1.00;0.85;;;8.20;56.10;;;;;;6196242;28;20049;-74
2021/01/24 08:55:50;;;;;;;1.20;0.80;;;8.10;56.10;;;;;;6177690;28;20074;-74
2021/01/24 08:58:51;;;;;;;1.55;1.30;;;8.10;56.00;;;;;;6201086;28;20112;-74
2021/01/24 09:01:56;;;;;;;2.95;1.63;;;8.10;55.70;;;;;;6202972;28;20050;-75
2021/01/24 09:04:57;;;;;;;5.20;1.08;;;8.00;55.90;;;;;;6214335;28;20044;-74
2021/01/24 09:07:59;;;;;;;1.33;0.90;;;8.00;56.10;;;;;;6219593;28;20052;-75
2021/01/24 09:11:00;;;;;;;2.97;0.63;;;8.00;56.00;;;;;;6187249;28;20456;-75
2021/01/24 09:14:01;;;;;;;2.88;0.95;;;8.00;55.90;;;;;;6201300;28;20034;-75
2021/01/24 09:17:03;;;;;;;1.77;0.95;;;8.00;55.80;;;;;;6187241;28;20061;-75
2021/01/24 09:20:05;;;;;;;0.80;0.80;;;7.90;55.80;;;;;;6203499;28;20042;-75
2021/01/24 09:23:06;;;;;;;2.22;0.95;;;7.90;55.80;;;;;;6216127;28;20033;-75
2021/01/24 09:26:08;;;;;;;2.25;1.05;;;8.00;55.80;;;;;;6201258;28;20046;-76
2021/01/24 09:29:09;;;;;;;1.33;0.90;;;8.00;55.70;;;;;;6216502;28;20184;-76
2021/01/24 09:32:10;;;;;;;3.90;1.15;;;8.00;55.80;;;;;;6208036;28;20045;-76
2021/01/24 09:35:12;;;;;;;2.15;1.13;;;8.00;55.80;;;;;;6217073;28;20045;-75
2021/01/24 09:38:13;;;;;;;0.95;0.80;;;8.00;55.60;;;;;;6203575;28;20081;-76
2021/01/24 09:41:14;;;;;;;1.92;1.35;;;8.00;55.60;;;;;;6196600;28;20527;-74
2021/01/24 09:44:15;;;;;;;1.10;0.90;;;8.10;55.80;;;;;;6218341;28;20041;-75
2021/01/24 09:47:16;;;;;;;2.75;1.15;;;8.10;55.50;;;;;;6199103;28;20042;-75
2021/01/24 09:50:18;;;;;;;3.13;0.90;;;8.10;55.50;;;;;;6202704;28;20386;-76
2021/01/24 09:53:19;;;;;;;3.60;1.33;;;8.10;55.20;;;;;;6217085;28;20045;-76
2021/01/24 09:56:20;;;;;;;1.10;0.95;;;8.20;55.30;;;;;;6215639;28;20038;-75
2021/01/24 09:59:21;;;;;;;0.70;0.70;;;8.20;55.10;;;;;;6200459;28;20419;-76
2021/01/24 10:02:22;;;;;;;0.85;0.80;;;8.30;54.70;;;;;;6201779;28;20481;-75
2021/01/24 10:05:23;;;;;;;2.58;1.30;;;8.30;54.70;;;;;;6201895;28;20541;-76
2021/01/24 10:08:24;;;;;;;0.80;0.80;;;8.30;54.60;;;;;;6218031;28;20414;-75
2021/01/24 10:11:25;;;;;;;1.10;0.95;;;8.30;54.70;;;;;;6172540;28;20080;-76
2021/01/24 10:14:26;;;;;;;1.30;1.13;;;8.30;54.70;;;;;;6199416;28;20105;-76
2021/01/24 10:17:27;;;;;;;2.35;1.00;;;8.40;54.40;;;;;;6216895;28;20037;-75
2021/01/24 10:20:28;;;;;;;2.90;1.15;;;8.40;54.20;;;;;;6213584;28;20042;-75
2021/01/24 10:23:29;;;;;;;1.80;0.90;;;8.40;54.10;;;;;;6183631;28;20049;-77
2021/01/24 10:26:30;;;;;;;5.20;1.05;;;8.60;54.00;;;;;;6213777;28;20363;-76
2021/01/24 10:29:33;;;;;;;1.17;0.88;;;8.70;53.80;;;;;;6202286;28;20038;-75
2021/01/24 10:32:38;;;;;;;3.65;1.52;;;8.90;53.70;;;;;;6200592;28;20422;-76
2021/01/24 10:35:39;;;;;;;1.80;0.80;;;9.10;53.30;;;;;;6200979;28;20034;-76
2021/01/24 10:38:40;;;;;;;1.20;0.90;;;9.20;53.10;;;;;;6204122;28;20037;-77
2021/01/24 10:41:41;;;;;;;1.45;0.85;;;9.20;52.70;;;;;;6217052;28;20077;-76
2021/01/24 10:44:42;;;;;;;1.63;0.88;;;9.20;52.40;;;;;;6204105;28;20038;-76
2021/01/24 10:47:43;;;;;;;2.92;1.20;;;9.10;52.20;;;;;;6217335;28;20044;-75
2021/01/24 10:50:44;;;;;;;1.33;0.90;;;9.10;52.50;;;;;;6218051;28;20104;-76
2021/01/24 10:53:45;;;;;;;1.95;1.05;;;9.20;52.50;;;;;;6180046;28;20353;-76
2021/01/24 10:56:46;;;;;;;1.27;0.95;;;9.30;52.00;;;;;;6186344;28;20029;-77
2021/01/24 10:59:47;;;;;;;1.85;1.20;;;9.30;51.90;;;;;;6203563;28;20049;-76
2021/01/24 11:02:48;;;;;;;1.38;1.00;;;9.40;52.20;;;;;;6217535;28;20030;-76
2021/01/24 11:05:49;;;;;;;0.70;0.70;;;9.70;52.20;;;;;;6199312;28;20121;-76
2021/01/24 11:08:50;;;;;;;2.13;1.02;;;10.10;51.90;;;;;;6222171;28;20033;-75
2021/01/24 11:11:51;;;;;;;0.90;0.70;;;10.50;51.10;;;;;;6204057;28;20260;-75
2021/01/24 11:14:52;;;;;;;0.82;0.70;;;10.90;50.30;;;;;;6204432;28;20060;-76
2021/01/24 11:17:54;;;;;;;1.42;0.88;;;11.00;49.00;;;;;;6187853;28;20038;-77
2021/01/24 11:20:55;;;;;;;3.42;1.00;;;10.90;48.30;;;;;;6191501;28;20038;-76
2021/01/24 11:23:56;;;;;;;1.20;0.80;;;10.70;48.40;;;;;;6207350;28;20117;-77
2021/01/24 11:26:58;;;;;;;1.10;0.77;;;10.70;48.30;;;;;;6225008;28;20049;-75
2021/01/24 11:29:59;;;;;;;4.47;1.02;;;11.00;47.90;;;;;;6221432;28;20506;-75
2021/01/24 11:33:00;;;;;;;1.88;0.80;;;11.20;47.80;;;;;;6220310;28;20026;-75
2021/01/24 11:36:01;;;;;;;2.15;1.02;;;11.30;47.30;;;;;;6236823;28;20042;-74
2021/01/24 11:39:03;;;;;;;2.80;1.02;;;11.30;47.30;;;;;;6222772;28;20038;-74
2021/01/24 11:42:04;;;;;;;1.25;0.98;;;11.50;46.70;;;;;;6210641;28;20038;-74
2021/01/24 11:45:06;;;;;;;2.40;1.20;;;11.90;46.50;;;;;;6192487;28;20034;-76
2021/01/24 11:48:08;;;;;;;2.58;1.00;;;12.40;46.20;;;;;;6222039;28;20030;-75
2021/01/24 11:51:08;;;;;;;3.38;0.95;;;13.00;44.50;;;;;;6190989;28;20034;-75
2021/01/24 11:54:09;;;;;;;1.23;0.95;;;13.60;43.00;;;;;;6204390;28;20026;-76
2021/01/24 11:57:11;;;;;;;1.23;0.80;;;14.20;41.80;;;;;;6220127;28;20041;-75
2021/01/24 12:00:12;;;;;;;3.65;1.05;;;14.80;40.80;;;;;;6189164;28;20049;-75
2021/01/24 12:03:14;;;;;;;2.13;1.30;;;15.20;39.70;;;;;;6187176;28;20109;-75
2021/01/24 12:06:15;;;;;;;1.98;0.90;;;15.50;38.80;;;;;;6218505;28;20030;-75
2021/01/24 12:09:17;;;;;;;1.02;0.80;;;15.80;38.00;;;;;;6203298;28;20039;-76
2021/01/24 12:12:18;;;;;;;1.10;0.73;;;15.50;37.90;;;;;;6205023;28;20034;-75
2021/01/24 12:15:18;;;;;;;1.70;0.95;;;14.90;37.50;;;;;;6190342;28;20049;-75
2021/01/24 12:18:19;;;;;;;1.65;0.90;;;14.10;39.30;;;;;;6185614;28;20030;-75
2021/01/24 12:21:20;;;;;;;1.05;0.70;;;13.40;40.60;;;;;;6189085;28;20029;-75
2021/01/24 12:24:21;;;;;;;1.08;0.77;;;12.80;41.30;;;;;;6203903;28;20041;-74
2021/01/24 12:27:22;;;;;;;2.55;1.13;;;12.40;42.30;;;;;;6205062;28;20514;-75
2021/01/24 12:30:23;;;;;;;1.75;1.10;;;12.10;43.00;;;;;;6189948;28;20041;-74
2021/01/24 12:33:24;;;;;;;2.65;1.00;;;11.80;43.80;;;;;;6224080;28;20487;-74
2021/01/24 12:36:25;;;;;;;1.77;1.10;;;11.50;44.40;;;;;;6220145;28;20133;-74
2021/01/24 12:39:26;;;;;;;1.70;0.95;;;11.30;44.70;;;;;;6205126;28;20038;-74
2021/01/24 12:42:27;;;;;;;2.42;1.23;;;11.20;44.90;;;;;;6222272;28;20026;-74
2021/01/24 12:45:29;;;;;;;2.53;0.98;;;11.00;45.30;;;;;;6204422;28;20050;-76
2021/01/24 12:48:29;;;;;;;1.15;0.85;;;10.90;45.50;;;;;;6219965;28;20034;-75
2021/01/24 12:51:30;;;;;;;1.02;0.70;;;10.80;45.80;;;;;;6222118;28;20064;-75
2021/01/24 12:54:32;;;;;;;1.42;0.95;;;10.70;46.30;;;;;;6186579;28;20443;-75
2021/01/24 12:57:33;;;;;;;0.70;0.50;;;10.60;46.20;;;;;;6205599;28;20030;-76
2021/01/24 13:00:34;;;;;;;2.25;0.90;;;10.50;46.50;;;;;;6203941;28;20373;-77
2021/01/24 13:03:35;;;;;;;1.15;0.77;;;10.50;46.60;;;;;;6201032;28;20530;-76
2021/01/24 13:06:36;;;;;;;1.77;1.05;;;10.50;46.50;;;;;;6210391;28;20363;-76
2021/01/24 13:09:37;;;;;;;1.23;0.80;;;10.40;46.80;;;;;;6204175;28;20042;-75
2021/01/24 13:12:38;;;;;;;1.38;0.75;;;10.40;47.00;;;;;;6201675;28;20037;-75
2021/01/24 13:15:39;;;;;;;1.05;0.70;;;10.40;47.10;;;;;;6219664;28;20106;-76
2021/01/24 13:18:40;;;;;;;1.27;0.88;;;10.40;47.10;;;;;;6204389;28;20050;-77
2021/01/24 13:21:41;;;;;;;2.20;0.90;;;10.40;47.20;;;;;;6186695;28;20030;-76
2021/01/24 13:24:42;;;;;;;2.97;0.90;;;10.40;47.10;;;;;;6203067;28;20034;-76
2021/01/24 13:27:43;;;;;;;2.20;1.08;;;10.40;47.10;;;;;;6204978;28;20447;-76
2021/01/24 13:30:44;;;;;;;0.68;0.68;;;10.40;47.30;;;;;;6219792;28;20038;-75
2021/01/24 13:33:45;;;;;;;1.23;1.00;;;10.50;47.20;;;;;;6201619;28;20034;-76
2021/01/24 13:36:46;;;;;;;1.75;1.05;;;10.40;46.80;;;;;;6221655;28;20030;-76
2021/01/24 13:39:48;;;;;;;1.33;0.70;;;10.40;46.80;;;;;;6203176;28;20033;-75
2021/01/24 13:42:49;;;;;;;2.17;1.00;;;10.40;47.10;;;;;;6187453;28;20103;-75
2021/01/24 13:45:50;;;;;;;0.63;0.63;;;10.30;46.90;;;;;;6201998;28;20077;-75
2021/01/24 13:48:51;;;;;;;1.38;0.88;;;10.30;46.90;;;;;;6202822;28;20034;-75
2021/01/24 13:51:52;;;;;;;1.00;0.80;;;10.30;46.80;;;;;;6203062;28;20503;-75
2021/01/24 13:54:52;;;;;;;0.85;0.68;;;10.30;46.50;;;;;;6203359;28;20025;-74
2021/01/24 13:57:53;;;;;;;1.52;0.70;;;10.30;46.50;;;;;;6201614;28;20041;-76
2021/01/24 14:00:54;;;;;;;3.47;0.73;;;10.30;46.50;;;;;;6193484;28;20451;-75
2021/01/24 14:03:55;;;;;;;1.85;1.13;;;10.30;46.20;;;;;;6206660;28;20100;-75
2021/01/24 14:06:56;;;;;;;3.17;1.25;;;10.30;46.20;;;;;;6188491;28;20046;-75
2021/01/24 14:09:57;;;;;;;2.92;1.17;;;10.30;46.10;;;;;;6207560;28;20050;-75
2021/01/24 14:12:58;;;;;;;1.88;0.63;;;10.30;46.40;;;;;;6177324;28;20038;-75
2021/01/24 14:15:59;;;;;;;0.70;0.70;;;10.30;46.40;;;;;;6207341;28;20054;-74
2021/01/24 14:19:00;;;;;;;0.50;0.50;;;10.30;46.50;;;;;;6173724;28;20101;-77
2021/01/24 14:22:01;;;;;;;1.00;0.57;;;10.30;46.50;;;;;;6170816;28;20538;-75
2021/01/24 14:25:02;;;;;;;5.82;0.65;;;10.40;46.40;;;;;;6191593;28;20049;-75
2021/01/24 14:28:04;;;;;;;1.05;0.80;;;10.30;46.10;;;;;;6185420;28;20513;-76
2021/01/24 14:31:06;;;;;;;3.58;0.93;;;10.30;46.00;;;;;;6188994;28;20085;-76
2021/01/24 14:34:07;;;;;;;1.10;0.80;;;10.40;46.10;;;;;;6189697;28;20037;-75
2021/01/24 14:37:08;;;;;;;1.08;0.70;;;10.40;46.30;;;;;;6204104;28;20038;-75
2021/01/24 14:40:10;;;;;;;1.83;1.00;;;10.40;46.30;;;;;;6189273;28;20030;-75
2021/01/24 14:43:12;;;;;;;1.17;0.95;;;10.60;46.20;;;;;;6195122;28;20061;-75
2021/01/24 14:46:13;;;;;;;1.70;0.75;;;10.50;46.10;;;;;;6199668;28;20419;-75
2021/01/24 14:49:16;;;;;;;2.88;0.98;;;10.50;46.20;;;;;;6213886;28;20049;-75
2021/01/24 14:52:17;;;;;;;2.13;0.80;;;10.50;46.20;;;;;;6175451;28;20110;-75
2021/01/24 14:55:18;;;;;;;3.10;0.80;;;10.50;45.90;;;;;;6193113;28;20034;-74
2021/01/24 14:58:19;;;;;;;1.67;0.90;;;10.50;46.20;;;;;;6186314;28;20038;-74
2021/01/24 15:01:20;;;;;;;2.45;1.02;;;10.50;46.00;;;;;;6220377;28;20104;-76
2021/01/24 15:04:21;;;;;;;0.98;0.60;;;10.40;46.00;;;;;;6198324;28;20173;-75
2021/01/24 15:07:22;;;;;;;5.85;1.10;;;10.50;46.10;;;;;;6197457;28;20053;-75
2021/01/24 15:10:23;;;;;;;2.05;1.05;;;10.50;45.80;;;;;;6209828;28;20038;-76
2021/01/24 15:13:24;;;;;;;1.60;0.63;;;10.50;45.70;;;;;;6192938;28;20045;-76
2021/01/24 15:16:25;;;;;;;1.75;0.73;;;10.50;45.80;;;;;;6178367;28;20460;-74
2021/01/24 15:19:27;;;;;;;1.65;0.75;;;10.50;45.90;;;;;;6194174;28;20046;-75
2021/01/24 15:22:28;;;;;;;2.88;1.30;;;10.50;45.80;;;;;;6195020;28;20033;-75
2021/01/24 15:25:29;;;;;;;1.17;0.75;;;10.40;45.70;;;;;;6180057;28;20041;-75
2021/01/24 15:28:31;;;;;;;2.67;1.30;;;10.40;45.40;;;;;;6210622;28;20050;-74
2021/01/24 15:31:32;;;;;;;2.40;0.85;;;10.40;45.50;;;;;;6196010;28;20092;-76
2021/01/24 15:34:33;;;;;;;0.82;0.60;;;10.40;45.90;;;;;;6176788;28;20030;-76
2021/01/24 15:37:36;;;;;;;4.40;0.77;;;10.40;46.20;;;;;;6196145;28;20038;-75
2021/01/24 15:40:37;;;;;;;1.48;0.93;;;10.40;46.20;;;;;;6193260;28;20038;-75
2021/01/24 15:43:38;;;;;;;1.90;1.00;;;10.40;46.00;;;;;;6174589;28;20523;-76
2021/01/24 15:46:40;;;;;;;1.63;0.75;;;10.40;46.20;;;;;;6214039;28;20347;-76
2021/01/24 15:49:41;;;;;;;2.90;1.15;;;10.40;46.30;;;;;;6194231;28;20053;-76
2021/01/24 15:52:42;;;;;;;1.92;1.05;;;10.40;46.20;;;;;;6180851;28;20087;-75
2021/01/24 15:55:45;;;;;;;1.25;0.85;;;10.40;46.30;;;;;;6197404;28;20031;-75
2021/01/24 15:58:46;;;;;;;2.20;1.27;;;10.40;46.40;;;;;;6179503;28;20132;-75
2021/01/24 16:01:47;;;;;;;2.72;0.98;;;10.30;46.40;;;;;;6194775;28;20374;-75
2021/01/24 16:04:47;;;;;;;19.92;5.80;;;10.30;46.40;;;;;;6192595;28;20092;-75